Aérodrome :
LOGIN :

S'inscrire | Disclaimer

   EN    FR    IT 

 










Légende :    VFR   VFR Marginal   IFR   IFR Intensif   IFR Très Intensif
Visi : 
Plafond : 
>= 8 km
>= 3000ft
5 à 8 km
1000 à 3000 ft
1500m à 5 km
500 à 1000 ft
800 à 1500m
200 à 500 ft
< 800m
< 200 ft
Symboles :   Orages  Brouillard  Fortes neiges  Fortes précipitations  Vent > 20 kt
SIGMETs :   Divers  Orages  Givrage  Turbulence  Onde Orograph.  Cendres Volcan.







- Altitude de l'aérodrome : 17 ft
- Code IATA : MPL
- Voir les cartes d'approche


LFMT - Montpellier Méditerranée

DERNIER METAR :
  • 251100Z AUTO 06006KT 360V090 8000 NSC 10/M00 Q1009 TEMPO 18010KT

METARs EXPIRÉS :
  • 251030Z AUTO 02007KT 8000 NSC 09/M00 Q1009 TEMPO 18010KT
  • 251000Z AUTO 02005KT 350V050 8000 NSC 08/00 Q1009 NOSIG
  • 250930Z AUTO 01005KT 340V040 7000 NSC 07/M01 Q1010 NOSIG
  • 250900Z AUTO 02008KT 7000 NSC 06/M00 Q1010 NOSIG
  • 250830Z AUTO 01006KT 7000 NSC 06/M00 Q1010 NOSIG

TAF TAF LFMT
Valide du 25 à 09h jusqu'au 26 à 09h UTC


250800Z 2509/2609 02010KT 7000 NSC
BECMG 2510/2512 CAVOK
TEMPO 2512/2515 18010KT
BECMG 2515/2518 9999 BKN030
BECMG 2518/2521 02010KT CAVOK
ATIS : +33 4 67 13 11 70
Pas de NOTAMs connus pour ce terrain.



MET'MAP, la Météo Aéronautique d'un coup d'oeil ! - Copyright ORBIFLY Décembre 2007 - Disclaimer

ORBIFLY MET'MAP TEAM :

Programmation & Développement : Alexandra Zaïnal
Conception & Développement : Baudouin d'Aumeries
Co-Programmation & Développement : Marc-Olivier Méhu
Soutien technique & logistique : Manuel Goepfert

Contact : metmap@orbifly.com




SOURCES & CREDITS :

   NOAA